sensor_id;sensor_type;location;lat;lon;timestamp;pressure;altitude;pressure_sealevel;temperature;humidity
77702;BME280;66868;42.708;23.404;2023-05-07T00:01:02;95394.34;;;11.31;79.14
77702;BME280;66868;42.708;23.404;2023-05-07T00:03:27;95363.97;;;11.15;79.30
77702;BME280;66868;42.708;23.404;2023-05-07T00:05:54;95381.56;;;11.18;79.95
77702;BME280;66868;42.708;23.404;2023-05-07T00:08:19;95384.34;;;11.14;79.63
77702;BME280;66868;42.708;23.404;2023-05-07T00:10:45;95402.09;;;11.14;80.09
77702;BME280;66868;42.708;23.404;2023-05-07T00:13:11;95394.06;;;11.05;80.27
77702;BME280;66868;42.708;23.404;2023-05-07T00:15:37;95399.66;;;10.96;80.42
77702;BME280;66868;42.708;23.404;2023-05-07T00:18:02;95391.22;;;10.96;81.00
77702;BME280;66868;42.708;23.404;2023-05-07T00:20:28;95401.78;;;11.04;81.20
77702;BME280;66868;42.708;23.404;2023-05-07T00:22:53;95401.78;;;11.04;81.18
77702;BME280;66868;42.708;23.404;2023-05-07T00:25:18;95357.25;;;10.70;80.78
77702;BME280;66868;42.708;23.404;2023-05-07T00:27:44;95396.91;;;10.85;80.38
77702;BME280;66868;42.708;23.404;2023-05-07T00:30:10;95400.91;;;10.89;80.78
77702;BME280;66868;42.708;23.404;2023-05-07T00:32:36;95374.63;;;10.76;80.36
77702;BME280;66868;42.708;23.404;2023-05-07T00:35:02;95359.69;;;10.72;81.39
77702;BME280;66868;42.708;23.404;2023-05-07T00:37:28;95395.50;;;10.95;80.63
77702;BME280;66868;42.708;23.404;2023-05-07T00:39:53;95395.34;;;10.98;80.31
77702;BME280;66868;42.708;23.404;2023-05-07T00:42:18;95395.41;;;10.97;80.23
77702;BME280;66868;42.708;23.404;2023-05-07T00:44:44;95392.06;;;10.96;81.48
77702;BME280;66868;42.708;23.404;2023-05-07T00:47:10;95394.59;;;10.96;81.47
77702;BME280;66868;42.708;23.404;2023-05-07T00:49:38;95396.06;;;11.00;81.68
77702;BME280;66868;42.708;23.404;2023-05-07T00:52:06;95406.09;;;11.02;81.42
77702;BME280;66868;42.708;23.404;2023-05-07T00:54:33;95381.53;;;10.88;81.33
77702;BME280;66868;42.708;23.404;2023-05-07T00:56:59;95412.81;;;11.03;81.34
77702;BME280;66868;42.708;23.404;2023-05-07T00:59:24;95317.59;;;10.39;80.83
77702;BME280;66868;42.708;23.404;2023-05-07T01:01:49;95408.81;;;10.99;81.06
77702;BME280;66868;42.708;23.404;2023-05-07T01:04:15;95369.72;;;10.73;80.63
77702;BME280;66868;42.708;23.404;2023-05-07T01:06:40;95409.63;;;10.99;80.70
77702;BME280;66868;42.708;23.404;2023-05-07T01:09:07;95408.19;;;10.95;81.20
77702;BME280;66868;42.708;23.404;2023-05-07T01:11:34;95404.16;;;10.91;81.07
77702;BME280;66868;42.708;23.404;2023-05-07T01:13:59;95386.72;;;10.71;81.04
77702;BME280;66868;42.708;23.404;2023-05-07T01:16:25;95414.53;;;10.87;81.18
77702;BME280;66868;42.708;23.404;2023-05-07T01:18:52;95366.34;;;10.58;80.88
77702;BME280;66868;42.708;23.404;2023-05-07T01:21:17;95390.53;;;10.78;80.78
77702;BME280;66868;42.708;23.404;2023-05-07T01:23:44;95375.03;;;10.69;80.15
77702;BME280;66868;42.708;23.404;2023-05-07T01:26:10;95399.69;;;10.81;80.06
77702;BME280;66868;42.708;23.404;2023-05-07T01:28:35;95405.41;;;10.84;80.67
77702;BME280;66868;42.708;23.404;2023-05-07T01:31:02;95406.72;;;10.76;80.04
77702;BME280;66868;42.708;23.404;2023-05-07T01:33:31;95408.53;;;10.58;80.12
77702;BME280;66868;42.708;23.404;2023-05-07T01:35:58;95410.34;;;10.56;80.80
77702;BME280;66868;42.708;23.404;2023-05-07T01:38:27;95411.47;;;10.50;80.74
77702;BME280;66868;42.708;23.404;2023-05-07T01:40:53;95381.44;;;10.29;81.34
77702;BME280;66868;42.708;23.404;2023-05-07T01:43:19;95397.78;;;10.39;81.27
77702;BME280;66868;42.708;23.404;2023-05-07T01:45:45;95412.06;;;10.40;81.78
77702;BME280;66868;42.708;23.404;2023-05-07T01:48:11;95403.00;;;10.36;81.09
77702;BME280;66868;42.708;23.404;2023-05-07T01:50:38;95384.38;;;10.21;81.02
77702;BME280;66868;42.708;23.404;2023-05-07T01:53:04;95385.34;;;10.18;81.83
77702;BME280;66868;42.708;23.404;2023-05-07T01:55:29;95388.75;;;10.17;81.78
77702;BME280;66868;42.708;23.404;2023-05-07T01:57:55;95385.50;;;10.15;82.03
77702;BME280;66868;42.708;23.404;2023-05-07T02:00:20;95386.78;;;10.07;81.67
77702;BME280;66868;42.708;23.404;2023-05-07T02:02:46;95369.81;;;9.93;82.02
77702;BME280;66868;42.708;23.404;2023-05-07T02:05:11;95384.16;;;10.08;81.84
77702;BME280;66868;42.708;23.404;2023-05-07T02:07:37;95382.63;;;10.06;82.43
77702;BME280;66868;42.708;23.404;2023-05-07T02:10:02;95376.56;;;10.08;82.62
77702;BME280;66868;42.708;23.404;2023-05-07T02:12:28;95361.63;;;10.04;82.86
77702;BME280;66868;42.708;23.404;2023-05-07T02:14:53;95367.50;;;10.04;83.56
77702;BME280;66868;42.708;23.404;2023-05-07T02:17:19;95365.72;;;10.06;83.91
77702;BME280;66868;42.708;23.404;2023-05-07T02:19:44;95365.72;;;10.06;84.10
77702;BME280;66868;42.708;23.404;2023-05-07T02:22:10;95327.19;;;9.86;84.04
77702;BME280;66868;42.708;23.404;2023-05-07T02:24:35;95367.38;;;10.07;83.86
77702;BME280;66868;42.708;23.404;2023-05-07T02:27:00;95358.53;;;9.99;83.97
77702;BME280;66868;42.708;23.404;2023-05-07T02:29:26;95374.78;;;10.10;83.92
77702;BME280;66868;42.708;23.404;2023-05-07T02:31:51;95364.59;;;10.12;83.34
77702;BME280;66868;42.708;23.404;2023-05-07T02:34:18;95367.03;;;10.13;83.66
77702;BME280;66868;42.708;23.404;2023-05-07T02:36:44;95368.53;;;10.17;83.07
77702;BME280;66868;42.708;23.404;2023-05-07T02:39:09;95371.06;;;10.17;83.64
77702;BME280;66868;42.708;23.404;2023-05-07T02:41:34;95365.22;;;10.17;83.75
77702;BME280;66868;42.708;23.404;2023-05-07T02:44:00;95361.16;;;10.13;83.62
77702;BME280;66868;42.708;23.404;2023-05-07T02:46:25;95355.97;;;10.16;84.56
77702;BME280;66868;42.708;23.404;2023-05-07T02:48:51;95365.09;;;10.18;83.77
77702;BME280;66868;42.708;23.404;2023-05-07T02:51:20;95323.94;;;9.99;83.84
77702;BME280;66868;42.708;23.404;2023-05-07T02:53:45;95362.19;;;10.26;83.55
77702;BME280;66868;42.708;23.404;2023-05-07T02:56:11;95340.91;;;9.97;84.20
77702;BME280;66868;42.708;23.404;2023-05-07T02:58:36;95357.41;;;10.04;84.32
77702;BME280;66868;42.708;23.404;2023-05-07T03:01:02;95364.97;;;10.04;84.82
77702;BME280;66868;42.708;23.404;2023-05-07T03:03:27;95349.22;;;9.99;85.21
77702;BME280;66868;42.708;23.404;2023-05-07T03:05:52;95373.72;;;10.14;85.79
77702;BME280;66868;42.708;23.404;2023-05-07T03:08:18;95374.41;;;10.18;85.58
77702;BME280;66868;42.708;23.404;2023-05-07T03:10:43;95375.22;;;10.18;85.67
77702;BME280;66868;42.708;23.404;2023-05-07T03:13:09;95382.00;;;10.18;84.99
77702;BME280;66868;42.708;23.404;2023-05-07T03:15:34;95378.22;;;10.09;85.10
77702;BME280;66868;42.708;23.404;2023-05-07T03:18:00;95382.38;;;10.10;85.83
77702;BME280;66868;42.708;23.404;2023-05-07T03:20:25;95376.56;;;10.08;85.45
77702;BME280;66868;42.708;23.404;2023-05-07T03:22:50;95379.78;;;10.12;86.30
77702;BME280;66868;42.708;23.404;2023-05-07T03:25:16;95383.50;;;10.05;86.61
77702;BME280;66868;42.708;23.404;2023-05-07T03:27:41;95380.59;;;10.12;86.75
77702;BME280;66868;42.708;23.404;2023-05-07T03:30:08;95390.13;;;10.07;86.92
77702;BME280;66868;42.708;23.404;2023-05-07T03:32:34;95373.06;;;9.95;87.18
77702;BME280;66868;42.708;23.404;2023-05-07T03:35:00;95337.66;;;9.80;87.50
77702;BME280;66868;42.708;23.404;2023-05-07T03:37:25;95374.38;;;10.02;87.72
77702;BME280;66868;42.708;23.404;2023-05-07T03:39:51;95378.69;;;10.00;89.65
77702;BME280;66868;42.708;23.404;2023-05-07T03:42:16;95385.78;;;10.09;90.37
77702;BME280;66868;42.708;23.404;2023-05-07T03:44:41;95392.50;;;10.10;90.10
77702;BME280;66868;42.708;23.404;2023-05-07T03:47:07;95365.16;;;10.01;89.27
77702;BME280;66868;42.708;23.404;2023-05-07T03:49:33;95402.56;;;10.28;89.93
77702;BME280;66868;42.708;23.404;2023-05-07T03:51:58;95397.94;;;10.36;88.53
77702;BME280;66868;42.708;23.404;2023-05-07T03:54:23;95400.47;;;10.36;88.16
77702;BME280;66868;42.708;23.404;2023-05-07T03:56:49;95407.88;;;10.39;88.32
77702;BME280;66868;42.708;23.404;2023-05-07T03:59:14;95386.81;;;10.23;88.61
77702;BME280;66868;42.708;23.404;2023-05-07T04:01:40;95378.13;;;10.11;88.90
77702;BME280;66868;42.708;23.404;2023-05-07T04:04:05;95407.63;;;10.28;87.73
77702;BME280;66868;42.708;23.404;2023-05-07T04:06:31;95405.09;;;10.28;87.68
77702;BME280;66868;42.708;23.404;2023-05-07T04:08:56;95422.44;;;10.35;87.85
77702;BME280;66868;42.708;23.404;2023-05-07T04:11:22;95393.44;;;9.92;88.45
77702;BME280;66868;42.708;23.404;2023-05-07T04:13:47;95427.91;;;10.10;88.05
77702;BME280;66868;42.708;23.404;2023-05-07T04:16:13;95428.25;;;9.87;88.46
77702;BME280;66868;42.708;23.404;2023-05-07T04:18:38;95436.84;;;9.85;88.38
77702;BME280;66868;42.708;23.404;2023-05-07T04:21:04;95428.31;;;9.70;89.01
77702;BME280;66868;42.708;23.404;2023-05-07T04:23:30;95409.28;;;9.46;88.58
77702;BME280;66868;42.708;23.404;2023-05-07T04:25:55;95426.81;;;9.49;88.71
77702;BME280;66868;42.708;23.404;2023-05-07T04:28:21;95444.50;;;9.49;88.91
77702;BME280;66868;42.708;23.404;2023-05-07T04:30:46;95447.78;;;9.51;89.35
77702;BME280;66868;42.708;23.404;2023-05-07T04:33:14;95448.69;;;9.32;90.52
77702;BME280;66868;42.708;23.404;2023-05-07T04:35:42;95447.59;;;9.38;90.47
77702;BME280;66868;42.708;23.404;2023-05-07T04:38:07;95451.50;;;9.44;90.71
77702;BME280;66868;42.708;23.404;2023-05-07T04:40:32;95458.34;;;9.42;91.60
77702;BME280;66868;42.708;23.404;2023-05-07T04:42:58;95460.28;;;9.37;91.70
77702;BME280;66868;42.708;23.404;2023-05-07T04:45:23;95458.63;;;9.36;92.51
77702;BME280;66868;42.708;23.404;2023-05-07T04:47:48;95438.72;;;9.29;92.68
77702;BME280;66868;42.708;23.404;2023-05-07T04:50:14;95457.47;;;9.43;93.26
77702;BME280;66868;42.708;23.404;2023-05-07T04:52:39;95426.22;;;9.44;92.29
77702;BME280;66868;42.708;23.404;2023-05-07T04:55:05;95454.31;;;9.72;92.28
77702;BME280;66868;42.708;23.404;2023-05-07T04:57:30;95423.53;;;9.64;92.63
77702;BME280;66868;42.708;23.404;2023-05-07T04:59:55;95460.50;;;9.99;92.05
77702;BME280;66868;42.708;23.404;2023-05-07T05:02:21;95464.69;;;10.00;92.75
77702;BME280;66868;42.708;23.404;2023-05-07T05:04:46;95462.50;;;10.10;93.01
77702;BME280;66868;42.708;23.404;2023-05-07T05:07:11;95457.75;;;10.21;92.81
77702;BME280;66868;42.708;23.404;2023-05-07T05:09:37;95426.72;;;10.17;92.33
77702;BME280;66868;42.708;23.404;2023-05-07T05:12:02;95454.84;;;10.44;91.75
77702;BME280;66868;42.708;23.404;2023-05-07T05:14:29;95451.00;;;10.53;92.79
77702;BME280;66868;42.708;23.404;2023-05-07T05:16:54;95458.69;;;10.67;92.00
77702;BME280;66868;42.708;23.404;2023-05-07T05:19:20;95459.25;;;10.72;92.53
77702;BME280;66868;42.708;23.404;2023-05-07T05:21:45;95446.81;;;10.83;92.68
77702;BME280;66868;42.708;23.404;2023-05-07T05:24:10;95423.31;;;10.81;91.75
77702;BME280;66868;42.708;23.404;2023-05-07T05:26:36;95456.00;;;11.16;91.91
77702;BME280;66868;42.708;23.404;2023-05-07T05:29:01;95432.66;;;11.11;91.44
77702;BME280;66868;42.708;23.404;2023-05-07T05:31:26;95452.25;;;11.23;90.26
77702;BME280;66868;42.708;23.404;2023-05-07T05:33:52;95467.81;;;11.46;89.64
77702;BME280;66868;42.708;23.404;2023-05-07T05:36:17;95463.19;;;11.53;89.80
77702;BME280;66868;42.708;23.404;2023-05-07T05:38:43;95438.28;;;11.45;90.07
77702;BME280;66868;42.708;23.404;2023-05-07T05:41:09;95240.53;;;10.45;89.77
77702;BME280;66868;42.708;23.404;2023-05-07T05:43:34;95450.41;;;11.84;89.42
77702;BME280;66868;42.708;23.404;2023-05-07T05:46:00;95428.66;;;11.80;88.61
77702;BME280;66868;42.708;23.404;2023-05-07T05:48:25;95462.78;;;12.05;88.03
77702;BME280;66868;42.708;23.404;2023-05-07T05:50:51;95462.50;;;12.23;88.09
77702;BME280;66868;42.708;23.404;2023-05-07T05:53:16;95455.88;;;12.21;87.39
77702;BME280;66868;42.708;23.404;2023-05-07T05:55:42;95412.03;;;12.05;86.96
77702;BME280;66868;42.708;23.404;2023-05-07T05:58:11;95417.38;;;12.14;87.10
77702;BME280;66868;42.708;23.404;2023-05-07T06:00:37;95462.13;;;12.44;87.48
77702;BME280;66868;42.708;23.404;2023-05-07T06:03:02;95451.88;;;12.45;87.04
77702;BME280;66868;42.708;23.404;2023-05-07T06:05:28;95473.81;;;12.60;86.69
77702;BME280;66868;42.708;23.404;2023-05-07T06:07:53;95453.50;;;12.60;86.18
77702;BME280;66868;42.708;23.404;2023-05-07T06:10:18;95475.31;;;12.63;86.71
77702;BME280;66868;42.708;23.404;2023-05-07T06:12:44;95474.69;;;12.73;86.29
77702;BME280;66868;42.708;23.404;2023-05-07T06:15:10;95472.31;;;12.84;85.60
77702;BME280;66868;42.708;23.404;2023-05-07T06:17:35;95469.19;;;12.94;85.15
77702;BME280;66868;42.708;23.404;2023-05-07T06:20:01;95442.44;;;12.88;85.22
77702;BME280;66868;42.708;23.404;2023-05-07T06:22:26;95467.19;;;13.13;84.46
77702;BME280;66868;42.708;23.404;2023-05-07T06:24:51;95462.03;;;13.27;84.21
77702;BME280;66868;42.708;23.404;2023-05-07T06:27:17;95435.97;;;13.23;84.13
77702;BME280;66868;42.708;23.404;2023-05-07T06:29:42;95465.94;;;13.45;83.60
77702;BME280;66868;42.708;23.404;2023-05-07T06:32:13;95465.97;;;13.58;83.21
77702;BME280;66868;42.708;23.404;2023-05-07T06:34:39;95461.50;;;13.61;82.96
77702;BME280;66868;42.708;23.404;2023-05-07T06:37:05;95456.72;;;13.69;82.54
77702;BME280;66868;42.708;23.404;2023-05-07T06:39:31;95328.72;;;13.04;82.25
77702;BME280;66868;42.708;23.404;2023-05-07T06:41:56;95411.03;;;13.68;81.97
77702;BME280;66868;42.708;23.404;2023-05-07T06:44:22;95427.50;;;13.88;81.10
77702;BME280;66868;42.708;23.404;2023-05-07T06:46:50;95447.06;;;14.12;81.36
77702;BME280;66868;42.708;23.404;2023-05-07T06:49:16;95440.75;;;14.18;80.80
77702;BME280;66868;42.708;23.404;2023-05-07T06:51:41;95405.91;;;14.06;80.62
77702;BME280;66868;42.708;23.404;2023-05-07T06:54:06;95435.25;;;14.37;80.49
77702;BME280;66868;42.708;23.404;2023-05-07T06:56:33;95436.03;;;14.50;81.26
77702;BME280;66868;42.708;23.404;2023-05-07T06:59:02;95439.28;;;14.65;80.36
77702;BME280;66868;42.708;23.404;2023-05-07T07:01:28;95443.72;;;14.74;79.49
77702;BME280;66868;42.708;23.404;2023-05-07T07:03:53;95401.25;;;14.62;79.50
77702;BME280;66868;42.708;23.404;2023-05-07T07:06:19;95438.50;;;14.88;79.45
77702;BME280;66868;42.708;23.404;2023-05-07T07:08:45;95443.44;;;15.02;78.98
77702;BME280;66868;42.708;23.404;2023-05-07T07:11:10;95335.66;;;14.52;78.83
77702;BME280;66868;42.708;23.404;2023-05-07T07:13:36;95435.16;;;15.22;77.85
77702;BME280;66868;42.708;23.404;2023-05-07T07:16:01;95415.50;;;15.35;77.74
77702;BME280;66868;42.708;23.404;2023-05-07T07:18:27;95411.59;;;15.42;76.28
77702;BME280;66868;42.708;23.404;2023-05-07T07:20:52;95419.31;;;15.54;76.34
77702;BME280;66868;42.708;23.404;2023-05-07T07:23:18;95416.19;;;15.61;75.87
77702;BME280;66868;42.708;23.404;2023-05-07T07:25:43;95426.66;;;15.69;75.87
77702;BME280;66868;42.708;23.404;2023-05-07T07:28:09;95415.75;;;15.67;75.81
77702;BME280;66868;42.708;23.404;2023-05-07T07:30:36;95423.06;;;15.72;74.47
77702;BME280;66868;42.708;23.404;2023-05-07T07:33:02;95430.97;;;15.80;74.12
77702;BME280;66868;42.708;23.404;2023-05-07T07:35:31;95419.22;;;15.66;73.42
77702;BME280;66868;42.708;23.404;2023-05-07T07:37:57;95423.50;;;15.77;73.82
77702;BME280;66868;42.708;23.404;2023-05-07T07:40:23;95416.09;;;15.74;74.37
77702;BME280;66868;42.708;23.404;2023-05-07T07:42:49;95436.22;;;15.89;75.01
77702;BME280;66868;42.708;23.404;2023-05-07T07:45:14;95433.09;;;15.86;75.44
77702;BME280;66868;42.708;23.404;2023-05-07T07:47:40;95439.44;;;15.91;74.63
77702;BME280;66868;42.708;23.404;2023-05-07T07:50:06;95443.53;;;16.05;73.73
77702;BME280;66868;42.708;23.404;2023-05-07T07:52:32;95440.75;;;16.08;73.43
77702;BME280;66868;42.708;23.404;2023-05-07T07:54:58;95426.69;;;16.03;72.88
77702;BME280;66868;42.708;23.404;2023-05-07T07:57:23;95414.19;;;16.00;72.84
77702;BME280;66868;42.708;23.404;2023-05-07T07:59:49;95442.16;;;16.12;72.38
77702;BME280;66868;42.708;23.404;2023-05-07T08:02:15;95436.59;;;16.18;72.65
77702;BME280;66868;42.708;23.404;2023-05-07T08:04:40;95429.59;;;16.20;72.30
77702;BME280;66868;42.708;23.404;2023-05-07T08:07:07;95432.38;;;16.28;71.64
77702;BME280;66868;42.708;23.404;2023-05-07T08:09:32;95434.13;;;16.39;70.86
77702;BME280;66868;42.708;23.404;2023-05-07T08:11:57;95432.16;;;16.43;71.25
77702;BME280;66868;42.708;23.404;2023-05-07T08:14:23;95437.16;;;16.44;69.43
77702;BME280;66868;42.708;23.404;2023-05-07T08:16:48;95431.22;;;16.55;68.27
77702;BME280;66868;42.708;23.404;2023-05-07T08:19:14;95428.69;;;16.55;67.54
77702;BME280;66868;42.708;23.404;2023-05-07T08:21:39;95395.56;;;16.42;67.42
77702;BME280;66868;42.708;23.404;2023-05-07T08:24:05;95427.75;;;16.67;68.35
77702;BME280;66868;42.708;23.404;2023-05-07T08:26:30;95403.81;;;16.68;67.62
77702;BME280;66868;42.708;23.404;2023-05-07T08:28:56;95423.31;;;16.80;67.45
77702;BME280;66868;42.708;23.404;2023-05-07T08:31:21;95420.72;;;16.91;67.41
77702;BME280;66868;42.708;23.404;2023-05-07T08:33:46;95423.13;;;17.04;67.04
77702;BME280;66868;42.708;23.404;2023-05-07T08:36:12;95417.41;;;17.11;67.00
77702;BME280;66868;42.708;23.404;2023-05-07T08:38:37;95406.94;;;17.14;66.86
77702;BME280;66868;42.708;23.404;2023-05-07T08:41:05;95411.31;;;17.23;65.19
77702;BME280;66868;42.708;23.404;2023-05-07T08:43:32;95343.56;;;16.86;64.12
77702;BME280;66868;42.708;23.404;2023-05-07T08:46:00;95411.16;;;17.36;64.32
77702;BME280;66868;42.708;23.404;2023-05-07T08:48:29;95413.66;;;17.47;63.71
77702;BME280;66868;42.708;23.404;2023-05-07T08:50:55;95413.28;;;17.52;63.06
77702;BME280;66868;42.708;23.404;2023-05-07T08:53:20;95414.16;;;17.62;62.75
77702;BME280;66868;42.708;23.404;2023-05-07T08:55:47;95409.13;;;17.72;62.42
77702;BME280;66868;42.708;23.404;2023-05-07T08:58:12;95408.78;;;17.86;61.35
77702;BME280;66868;42.708;23.404;2023-05-07T09:00:39;95397.22;;;17.91;59.24
77702;BME280;66868;42.708;23.404;2023-05-07T09:03:05;95397.84;;;18.04;57.32
77702;BME280;66868;42.708;23.404;2023-05-07T09:05:30;95383.16;;;18.06;58.29
77702;BME280;66868;42.708;23.404;2023-05-07T09:07:59;95378.59;;;18.10;59.65
77702;BME280;66868;42.708;23.404;2023-05-07T09:10:25;95393.66;;;18.34;57.56
77702;BME280;66868;42.708;23.404;2023-05-07T09:12:51;95392.72;;;18.35;57.66
77702;BME280;66868;42.708;23.404;2023-05-07T09:15:16;95389.59;;;18.41;56.19
77702;BME280;66868;42.708;23.404;2023-05-07T09:17:43;95376.13;;;18.39;56.45
77702;BME280;66868;42.708;23.404;2023-05-07T09:20:09;95382.91;;;18.49;56.95
77702;BME280;66868;42.708;23.404;2023-05-07T09:22:37;95342.91;;;18.37;56.79
77702;BME280;66868;42.708;23.404;2023-05-07T09:25:05;95385.16;;;18.83;52.98
77702;BME280;66868;42.708;23.404;2023-05-07T09:27:31;95361.66;;;18.87;52.34
77702;BME280;66868;42.708;23.404;2023-05-07T09:29:56;95374.09;;;19.02;53.81
77702;BME280;66868;42.708;23.404;2023-05-07T09:32:22;95369.78;;;19.02;54.82
77702;BME280;66868;42.708;23.404;2023-05-07T09:34:47;95366.69;;;19.08;53.90
77702;BME280;66868;42.708;23.404;2023-05-07T09:37:13;95358.97;;;19.18;53.48
77702;BME280;66868;42.708;23.404;2023-05-07T09:39:43;95372.75;;;19.36;53.36
77702;BME280;66868;42.708;23.404;2023-05-07T09:42:09;95351.38;;;19.35;53.88
77702;BME280;66868;42.708;23.404;2023-05-07T09:44:35;95365.72;;;19.57;53.25
77702;BME280;66868;42.708;23.404;2023-05-07T09:47:04;95361.50;;;19.66;52.17
77702;BME280;66868;42.708;23.404;2023-05-07T09:49:35;95342.19;;;19.62;50.17
77702;BME280;66868;42.708;23.404;2023-05-07T09:52:05;95353.09;;;19.83;48.78
77702;BME280;66868;42.708;23.404;2023-05-07T09:54:32;95352.38;;;19.91;49.30
77702;BME280;66868;42.708;23.404;2023-05-07T09:57:02;95353.41;;;19.98;49.38
77702;BME280;66868;42.708;23.404;2023-05-07T09:59:32;95332.34;;;19.94;48.81
77702;BME280;66868;42.708;23.404;2023-05-07T10:01:58;95351.47;;;20.19;48.76
77702;BME280;66868;42.708;23.404;2023-05-07T10:04:25;95349.66;;;20.29;47.58
77702;BME280;66868;42.708;23.404;2023-05-07T10:06:51;95346.28;;;20.28;45.18
77702;BME280;66868;42.708;23.404;2023-05-07T10:09:17;95338.97;;;20.24;45.88
77702;BME280;66868;42.708;23.404;2023-05-07T10:11:43;95331.38;;;20.32;45.56
77702;BME280;66868;42.708;23.404;2023-05-07T10:14:09;95341.00;;;20.57;46.97
77702;BME280;66868;42.708;23.404;2023-05-07T10:16:36;95346.97;;;20.76;45.51
77702;BME280;66868;42.708;23.404;2023-05-07T10:19:05;95342.09;;;20.90;44.97
77702;BME280;66868;42.708;23.404;2023-05-07T10:21:38;95341.81;;;21.11;45.06
77702;BME280;66868;42.708;23.404;2023-05-07T10:24:16;95343.47;;;21.30;43.67
77702;BME280;66868;42.708;23.404;2023-05-07T10:26:45;95296.72;;;21.25;43.71
77702;BME280;66868;42.708;23.404;2023-05-07T10:29:21;95315.81;;;21.57;43.72
77702;BME280;66868;42.708;23.404;2023-05-07T10:34:48;95260.44;;;21.70;42.27
77702;BME280;66868;42.708;23.404;2023-05-07T10:37:16;95327.31;;;22.31;40.95
77702;BME280;66868;42.708;23.404;2023-05-07T10:39:42;95315.41;;;22.38;39.67
77702;BME280;66868;42.708;23.404;2023-05-07T10:42:12;95309.00;;;22.50;39.53
77702;BME280;66868;42.708;23.404;2023-05-07T10:44:37;95322.78;;;22.75;38.62
77702;BME280;66868;42.708;23.404;2023-05-07T10:47:10;95316.69;;;22.84;38.92
77702;BME280;66868;42.708;23.404;2023-05-07T10:52:31;95296.75;;;22.60;39.15
77702;BME280;66868;42.708;23.404;2023-05-07T10:57:42;95305.69;;;22.90;39.48
77702;BME280;66868;42.708;23.404;2023-05-07T11:05:27;95303.44;;;23.27;38.56
77702;BME280;66868;42.708;23.404;2023-05-07T11:08:03;95316.72;;;23.49;38.55
77702;BME280;66868;42.708;23.404;2023-05-07T11:10:54;95316.66;;;23.65;38.19
77702;BME280;66868;42.708;23.404;2023-05-07T11:16:24;95320.94;;;23.97;38.26
77702;BME280;66868;42.708;23.404;2023-05-07T11:18:51;95300.22;;;24.13;37.72
77702;BME280;66868;42.708;23.404;2023-05-07T11:21:38;95309.19;;;24.41;38.52
77702;BME280;66868;42.708;23.404;2023-05-07T11:24:06;95293.09;;;24.54;38.59
77702;BME280;66868;42.708;23.404;2023-05-07T11:29:16;95298.53;;;25.13;36.71
77702;BME280;66868;42.708;23.404;2023-05-07T11:31:42;95301.63;;;25.31;36.97
77702;BME280;66868;42.708;23.404;2023-05-07T11:34:09;95303.06;;;25.48;36.79
77702;BME280;66868;42.708;23.404;2023-05-07T11:36:35;95281.44;;;25.41;33.83
77702;BME280;66868;42.708;23.404;2023-05-07T11:39:01;95296.16;;;25.63;34.38
77702;BME280;66868;42.708;23.404;2023-05-07T11:41:34;95293.47;;;25.71;34.89
77702;BME280;66868;42.708;23.404;2023-05-07T11:44:01;95290.00;;;25.64;33.36
77702;BME280;66868;42.708;23.404;2023-05-07T11:46:27;95296.75;;;25.50;33.90
77702;BME280;66868;42.708;23.404;2023-05-07T11:48:53;95297.63;;;25.43;31.87
77702;BME280;66868;42.708;23.404;2023-05-07T11:51:20;95283.28;;;25.55;32.06
77702;BME280;66868;42.708;23.404;2023-05-07T11:53:46;95301.16;;;26.09;34.23
77702;BME280;66868;42.708;23.404;2023-05-07T11:56:13;95300.22;;;26.60;28.51
77702;BME280;66868;42.708;23.404;2023-05-07T11:58:39;95300.16;;;26.90;27.59
77702;BME280;66868;42.708;23.404;2023-05-07T12:01:07;95299.44;;;27.45;26.68
77702;BME280;66868;42.708;23.404;2023-05-07T12:03:34;95295.31;;;28.13;27.15
77702;BME280;66868;42.708;23.404;2023-05-07T12:06:00;95274.56;;;28.93;24.92
77702;BME280;66868;42.708;23.404;2023-05-07T12:08:25;95295.84;;;29.95;24.30
77702;BME280;66868;42.708;23.404;2023-05-07T12:10:50;95291.59;;;30.96;23.56
77702;BME280;66868;42.708;23.404;2023-05-07T12:13:20;95287.91;;;31.85;24.31
77702;BME280;66868;42.708;23.404;2023-05-07T12:15:46;95290.66;;;32.93;23.46
77702;BME280;66868;42.708;23.404;2023-05-07T12:18:12;95284.56;;;33.75;21.16
77702;BME280;66868;42.708;23.404;2023-05-07T12:20:39;95289.28;;;34.65;21.04
77702;BME280;66868;42.708;23.404;2023-05-07T12:23:04;95295.38;;;35.55;18.48
77702;BME280;66868;42.708;23.404;2023-05-07T12:25:39;95251.13;;;36.12;18.65
77702;BME280;66868;42.708;23.404;2023-05-07T12:28:05;95295.31;;;36.44;18.28
77702;BME280;66868;42.708;23.404;2023-05-07T12:30:38;95297.94;;;34.48;17.52
77702;BME280;66868;42.708;23.404;2023-05-07T12:33:04;95280.06;;;33.29;18.82
77702;BME280;66868;42.708;23.404;2023-05-07T12:35:31;95274.59;;;33.65;19.08
77702;BME280;66868;42.708;23.404;2023-05-07T12:37:58;95277.63;;;35.00;17.84
77702;BME280;66868;42.708;23.404;2023-05-07T12:40:35;95274.50;;;36.69;17.67
77702;BME280;66868;42.708;23.404;2023-05-07T12:43:00;95267.94;;;38.56;16.76
77702;BME280;66868;42.708;23.404;2023-05-07T12:45:26;95270.31;;;40.14;15.51
77702;BME280;66868;42.708;23.404;2023-05-07T12:47:51;95275.59;;;41.28;15.61
77702;BME280;66868;42.708;23.404;2023-05-07T12:50:17;95299.78;;;42.42;14.68
77702;BME280;66868;42.708;23.404;2023-05-07T12:52:43;95295.16;;;43.78;13.64
77702;BME280;66868;42.708;23.404;2023-05-07T12:55:13;95292.34;;;45.06;12.25
77702;BME280;66868;42.708;23.404;2023-05-07T12:57:47;95308.97;;;45.92;10.98
77702;BME280;66868;42.708;23.404;2023-05-07T13:00:14;95297.44;;;46.53;11.20
77702;BME280;66868;42.708;23.404;2023-05-07T13:02:41;95308.88;;;47.54;11.06
77702;BME280;66868;42.708;23.404;2023-05-07T13:05:07;95307.41;;;48.58;12.79